WilderneSS Discoverer — WDF7009 — position and weather

sailwx.info

Track history (hours):
 
Tides and Currents Weather Stations Pressure Air Temp Water Temp Dewpoint Dewpoint Depression Visibility Wind Speed Wind Dir Waves Ship Positions

WilderneSS Discoverer

Owner: InnerSea Discoveries, Seattle, WA. More information available from US FCC via Universal Licensing System and Coast Guard Vessel Documentation Center.

Last reported at 2018-Aug-18 06:00 UTC. Time now 2018-Aug-18 22:29 UTC.
Position N 58°12' W 135°18'.

Length 52 m; draft 2.3 m.

Type: Passenger vessel. MMSI: 367480140.

Wind from 330 at 11 knots

Barometer 1027.0 mb
Air temperature 13.9 ° C
Visibility: greater than 10.8 NM
Water temperature 13.3 ° C

Date/timePositionNaut miles runAvg speedWind from/ knotsBaromVisibWave heightAir tempDewpointWater temp
2018-Aug-18 06:00N 58°12' W 135°18'3 8.1 330 / 111027.010.8 13.9 13.3
2018-Aug-18 05:40N 58°13' W 135°22'1 8.5
2018-Aug-18 05:30N 58°14' W 135°25'4 8.6
2018-Aug-18 05:00N 58°16' W 135°32'4 8.6
2018-Aug-18 04:31N 58°17' W 135°39'4 8.3
2018-Aug-18 04:00N 58°19' W 135°47'4 8.5
2018-Aug-18 03:30N 58°21' W 135°54'4 7.2
2018-Aug-18 03:00N 58°24' W 135°57'4 7.7
2018-Aug-18 02:30N 58°27' W 135°53'0 0.3
2018-Aug-18 01:58N 58°27' W 135°53'0 0.0
2018-Aug-18 01:28N 58°27' W 135°53'0 0.0
2018-Aug-18 00:58N 58°27' W 135°53'0 0.0
2018-Aug-18 00:29N 58°27' W 135°53'0 0.0
2018-Aug-18 00:00N 58°27' W 135°53'0 0.5
2018-Aug-17 23:30N 58°28' W 135°53'3 6.3
2018-Aug-17 23:00N 58°26' W 135°59'4 7.2
2018-Aug-17 22:30N 58°30' W 136°03'510.0
2018-Aug-17 22:00N 58°34' W 136°03'4 8.4
2018-Aug-17 21:30N 58°39' W 136°02'4 7.2
2018-Aug-17 21:00N 58°41' W 136°08'510.2
2018-Aug-17 20:30N 58°44' W 136°16'9 1.0
2018-Aug-17 11:40N 58°49' W 136°30'4 9.1
2018-Aug-17 11:10N 58°46' W 136°24'2 9.9
2018-Aug-17 10:59N 58°45' W 136°21'5 9.4
2018-Aug-17 10:30N 58°42' W 136°14'5 9.5
2018-Aug-17 10:00N 58°38' W 136°09'5 9.7
2018-Aug-17 09:30N 58°34' W 136°04'5 9.6
2018-Aug-17 09:01N 58°30' W 136°03'4 8.4
2018-Aug-17 08:30N 58°26' W 136°00'4 8.4
2018-Aug-17 08:00N 58°22' W 135°57'3 6.4
2018-Aug-17 07:30N 58°21' W 135°51'1 1.7
2018-Aug-17 07:00N 58°21' W 135°50'3 5.2
2018-Aug-17 06:30N 58°20' W 135°54'2 3.3
2018-Aug-17 06:00N 58°18' W 135°53'2 3.8
2018-Aug-17 05:30N 58°17' W 135°51'2 3.6
2018-Aug-17 05:00N 58°18' W 135°48'0 1.0
2018-Aug-17 04:30N 58°18' W 135°49'1 2.2
2018-Aug-17 04:00N 58°17' W 135°51'3 6.6
2018-Aug-17 03:30N 58°20' W 135°48'4 7.0
2018-Aug-17 03:00N 58°23' W 135°44'0 0.6
2018-Aug-17 02:30N 58°23' W 135°44'1 2.5
2018-Aug-17 02:00N 58°22' W 135°46'2 3.1
2018-Aug-17 01:30N 58°21' W 135°47'2 4.2
2018-Aug-17 01:00N 58°20' W 135°43'3 6.0
2018-Aug-17 00:30N 58°18' W 135°39'1 1.4
2018-Aug-16 23:59N 58°18' W 135°37'4 7.7
2018-Aug-16 23:30N 58°15' W 135°42'3 6.8
2018-Aug-16 23:00N 58°17' W 135°46'4 7.0
2018-Aug-16 22:30N 58°16' W 135°52'2 5.0
2018-Aug-16 22:00N 58°14' W 135°56'3 6.6
2018-Aug-16 21:30N 58°14' W 136°02'5 8.1
2018-Aug-16 20:56N 58°14' W 136°11'3 2.4
2018-Aug-16 19:36N 58°12' W 136°15'1 0.9
2018-Aug-16 18:00N 58°12' W 136°18'1 1.7 250 / 61019.0 5.4 15.0 8.9
2018-Aug-16 17:09N 58°12' W 136°15'0 0.0
2018-Aug-16 16:51N 58°12' W 136°15'0 0.0
2018-Aug-16 14:36N 58°12' W 136°15'0 0.0
2018-Aug-16 14:30N 58°12' W 136°15'6 0.7
2018-Aug-16 06:00N 58°06' W 136°12'7 1.1 100 / 91020.0 5.4 11.7 8.9
2018-Aug-16 00:00N 58°00' W 136°06'3 0.5 110 / 61020.0 5.4 13.9 8.9
2018-Aug-15 18:00N 58°00' W 136°12'11 1.0 110 / 51019.0 5.4 14.4 8.3
2018-Aug-15 07:08N 58°11' W 136°13'1 6.3
2018-Aug-15 06:58N 58°12' W 136°13'3 6.4
2018-Aug-15 06:30N 58°15' W 136°15'2 4.7
2018-Aug-15 06:00N 58°17' W 136°17'2 5.0
2018-Aug-15 05:30N 58°19' W 136°19'3 1.0
2018-Aug-15 02:29N 58°21' W 136°22'0 0.0
2018-Aug-15 02:00N 58°21' W 136°22'3 1.4
2018-Aug-15 00:00N 58°24' W 136°24'0 0.0 1015.0 5.4 15.0 8.3
2018-Aug-14 19:00N 58°24' W 136°24'313.8 1013.9 5.4 13.9 9.4
2018-Aug-14 18:48N 58°21' W 136°22'0 0.0
2018-Aug-14 14:27N 58°21' W 136°22'0 0.6
2018-Aug-14 13:53N 58°21' W 136°22'4 9.0
2018-Aug-14 13:27N 58°18' W 136°17'510.8
2018-Aug-14 13:00N 58°19' W 136°08'611.7
2018-Aug-14 12:30N 58°20' W 135°56'611.0
2018-Aug-14 12:00N 58°18' W 135°46'510.4
2018-Aug-14 11:30N 58°16' W 135°37'40 3.5
2018-Aug-14 00:00N 57°36' W 135°36'9 1.5 150 / 171016.0 5.4 13.9 13.9
2018-Aug-13 18:00N 57°42' W 135°48'31 1.7 290 / 81020.0 5.4 14.4 14.4
2018-Aug-13 00:00N 57°12' W 135°36'0 0.0 230 / 71025.0 2.2 17.2 11.1
2018-Aug-11 00:00N 57°12' W 135°36'7 1.1 250 / 81021.0 5.4 20.0 15.6
2018-Aug-10 18:00N 57°18' W 135°42'65 3.6 180 / 31019.0 5.4 15.6 12.8
2018-Aug-10 00:00N 56°36' W 134°12'97 2.3 180 / 161011.0 5.4 16.7 12.8
2018-Aug-08 06:00N 58°06' W 135°18'   120 / 141012.010.8 16.1 14.4
Track history (hours):
 
Tides and Currents Weather Stations Pressure Air Temp Water Temp Dewpoint Dewpoint Depression Visibility Wind Speed Wind Dir Waves Ship Positions

WilderneSS Discoverer

Owner: InnerSea Discoveries, Seattle, WA. More information available from US FCC via Universal Licensing System and Coast Guard Vessel Documentation Center.

Last reported at 2018-Aug-18 06:00 UTC. Time now 2018-Aug-18 22:29 UTC.
Position N 58°12' W 135°18'.

Length 52 m; draft 2.3 m.

Type: Passenger vessel. MMSI: 367480140.

Wind from 330 at 11 knots

Barometer 1027.0 mb
Air temperature 13.9 ° C
Visibility: greater than 10.8 NM
Water temperature 13.3 ° C

Date/timePositionNaut miles runAvg speedWind from/ knotsBaromVisibWave heightAir tempDewpointWater temp
2018-Aug-18 06:00N 58°12' W 135°18'3 8.1 330 / 111027.010.8 13.9 13.3
2018-Aug-18 05:40N 58°13' W 135°22'1 8.5
2018-Aug-18 05:30N 58°14' W 135°25'4 8.6
2018-Aug-18 05:00N 58°16' W 135°32'4 8.6
2018-Aug-18 04:31N 58°17' W 135°39'4 8.3
2018-Aug-18 04:00N 58°19' W 135°47'4 8.5
2018-Aug-18 03:30N 58°21' W 135°54'4 7.2
2018-Aug-18 03:00N 58°24' W 135°57'4 7.7
2018-Aug-18 02:30N 58°27' W 135°53'0 0.3
2018-Aug-18 01:58N 58°27' W 135°53'0 0.0
2018-Aug-18 01:28N 58°27' W 135°53'0 0.0
2018-Aug-18 00:58N 58°27' W 135°53'0 0.0
2018-Aug-18 00:29N 58°27' W 135°53'0 0.0
2018-Aug-18 00:00N 58°27' W 135°53'0 0.5
2018-Aug-17 23:30N 58°28' W 135°53'3 6.3
2018-Aug-17 23:00N 58°26' W 135°59'4 7.2
2018-Aug-17 22:30N 58°30' W 136°03'510.0
2018-Aug-17 22:00N 58°34' W 136°03'4 8.4
2018-Aug-17 21:30N 58°39' W 136°02'4 7.2
2018-Aug-17 21:00N 58°41' W 136°08'510.2
2018-Aug-17 20:30N 58°44' W 136°16'9 1.0
2018-Aug-17 11:40N 58°49' W 136°30'4 9.1
2018-Aug-17 11:10N 58°46' W 136°24'2 9.9
2018-Aug-17 10:59N 58°45' W 136°21'5 9.4
2018-Aug-17 10:30N 58°42' W 136°14'5 9.5
2018-Aug-17 10:00N 58°38' W 136°09'5 9.7
2018-Aug-17 09:30N 58°34' W 136°04'5 9.6
2018-Aug-17 09:01N 58°30' W 136°03'4 8.4
2018-Aug-17 08:30N 58°26' W 136°00'4 8.4
2018-Aug-17 08:00N 58°22' W 135°57'3 6.4
2018-Aug-17 07:30N 58°21' W 135°51'1 1.7
2018-Aug-17 07:00N 58°21' W 135°50'3 5.2
2018-Aug-17 06:30N 58°20' W 135°54'2 3.3
2018-Aug-17 06:00N 58°18' W 135°53'2 3.8
2018-Aug-17 05:30N 58°17' W 135°51'2 3.6
2018-Aug-17 05:00N 58°18' W 135°48'0 1.0
2018-Aug-17 04:30N 58°18' W 135°49'1 2.2
2018-Aug-17 04:00N 58°17' W 135°51'3 6.6
2018-Aug-17 03:30N 58°20' W 135°48'4 7.0
2018-Aug-17 03:00N 58°23' W 135°44'0 0.6
2018-Aug-17 02:30N 58°23' W 135°44'1 2.5
2018-Aug-17 02:00N 58°22' W 135°46'2 3.1
2018-Aug-17 01:30N 58°21' W 135°47'2 4.2
2018-Aug-17 01:00N 58°20' W 135°43'3 6.0
2018-Aug-17 00:30N 58°18' W 135°39'1 1.4
2018-Aug-16 23:59N 58°18' W 135°37'4 7.7
2018-Aug-16 23:30N 58°15' W 135°42'3 6.8
2018-Aug-16 23:00N 58°17' W 135°46'4 7.0
2018-Aug-16 22:30N 58°16' W 135°52'2 5.0
2018-Aug-16 22:00N 58°14' W 135°56'3 6.6
2018-Aug-16 21:30N 58°14' W 136°02'5 8.1
2018-Aug-16 20:56N 58°14' W 136°11'3 2.4
2018-Aug-16 19:36N 58°12' W 136°15'1 0.9
2018-Aug-16 18:00N 58°12' W 136°18'1 1.7 250 / 61019.0 5.4 15.0 8.9
2018-Aug-16 17:09N 58°12' W 136°15'0 0.0
2018-Aug-16 16:51N 58°12' W 136°15'0 0.0
2018-Aug-16 14:36N 58°12' W 136°15'0 0.0
2018-Aug-16 14:30N 58°12' W 136°15'6 0.7
2018-Aug-16 06:00N 58°06' W 136°12'7 1.1 100 / 91020.0 5.4 11.7 8.9
2018-Aug-16 00:00N 58°00' W 136°06'3 0.5 110 / 61020.0 5.4 13.9 8.9
2018-Aug-15 18:00N 58°00' W 136°12'11 1.0 110 / 51019.0 5.4 14.4 8.3
2018-Aug-15 07:08N 58°11' W 136°13'1 6.3
2018-Aug-15 06:58N 58°12' W 136°13'3 6.4
2018-Aug-15 06:30N 58°15' W 136°15'2 4.7
2018-Aug-15 06:00N 58°17' W 136°17'2 5.0
2018-Aug-15 05:30N 58°19' W 136°19'3 1.0
2018-Aug-15 02:29N 58°21' W 136°22'0 0.0
2018-Aug-15 02:00N 58°21' W 136°22'3 1.4
2018-Aug-15 00:00N 58°24' W 136°24'0 0.0 1015.0 5.4 15.0 8.3
2018-Aug-14 19:00N 58°24' W 136°24'313.8 1013.9 5.4 13.9 9.4
2018-Aug-14 18:48N 58°21' W 136°22'0 0.0
2018-Aug-14 14:27N 58°21' W 136°22'0 0.6
2018-Aug-14 13:53N 58°21' W 136°22'4 9.0
2018-Aug-14 13:27N 58°18' W 136°17'510.8
2018-Aug-14 13:00N 58°19' W 136°08'611.7
2018-Aug-14 12:30N 58°20' W 135°56'611.0
2018-Aug-14 12:00N 58°18' W 135°46'510.4
2018-Aug-14 11:30N 58°16' W 135°37'40 3.5
2018-Aug-14 00:00N 57°36' W 135°36'9 1.5 150 / 171016.0 5.4 13.9 13.9
2018-Aug-13 18:00N 57°42' W 135°48'31 1.7 290 / 81020.0 5.4 14.4 14.4
2018-Aug-13 00:00N 57°12' W 135°36'0 0.0 230 / 71025.0 2.2 17.2 11.1
2018-Aug-11 00:00N 57°12' W 135°36'7 1.1 250 / 81021.0 5.4 20.0 15.6
2018-Aug-10 18:00N 57°18' W 135°42'65 3.6 180 / 31019.0 5.4 15.6 12.8
2018-Aug-10 00:00N 56°36' W 134°12'97 2.3 180 / 161011.0 5.4 16.7 12.8
2018-Aug-08 06:00N 58°06' W 135°18'   120 / 141012.010.8 16.1 14.4

Dump ship's entire track history